sensor_id;sensor_type;location;lat;lon;timestamp;pressure;altitude;pressure_sealevel;temperature;humidity
73566;BME280;61846;52.970;-3.168;2024-03-25T00:01:12;99544.65;;;10.07;44.38
73566;BME280;61846;52.970;-3.168;2024-03-25T00:03:37;99535.65;;;10.16;44.46
73566;BME280;61846;52.970;-3.168;2024-03-25T00:06:03;99531.95;;;9.15;46.25
73566;BME280;61846;52.970;-3.168;2024-03-25T00:08:28;99529.99;;;10.37;44.39
73566;BME280;61846;52.970;-3.168;2024-03-25T00:10:54;99529.49;;;9.27;45.30
73566;BME280;61846;52.970;-3.168;2024-03-25T00:13:19;99521.77;;;8.59;46.64
73566;BME280;61846;52.970;-3.168;2024-03-25T00:15:45;99521.59;;;10.05;44.90
73566;BME280;61846;52.970;-3.168;2024-03-25T00:18:10;99518.13;;;8.93;47.03
73566;BME280;61846;52.970;-3.168;2024-03-25T00:20:36;99511.59;;;10.13;44.65
73566;BME280;61846;52.970;-3.168;2024-03-25T00:23:02;99505.75;;;9.59;46.13
73566;BME280;61846;52.970;-3.168;2024-03-25T00:25:27;99502.77;;;10.28;43.99
73566;BME280;61846;52.970;-3.168;2024-03-25T00:27:53;99495.01;;;9.10;46.83
73566;BME280;61846;52.970;-3.168;2024-03-25T00:30:19;99490.55;;;9.60;45.85
73566;BME280;61846;52.970;-3.168;2024-03-25T00:32:44;99485.89;;;9.87;46.08
73566;BME280;61846;52.970;-3.168;2024-03-25T00:35:09;99480.69;;;8.75;47.20
73566;BME280;61846;52.970;-3.168;2024-03-25T00:37:35;99474.75;;;9.15;47.84
73566;BME280;61846;52.970;-3.168;2024-03-25T00:40:01;99472.16;;;9.53;46.87
73566;BME280;61846;52.970;-3.168;2024-03-25T00:42:26;99469.95;;;7.84;50.36
73566;BME280;61846;52.970;-3.168;2024-03-25T00:44:52;99466.21;;;8.32;49.88
73566;BME280;61846;52.970;-3.168;2024-03-25T00:47:17;99470.33;;;7.00;53.11
73566;BME280;61846;52.970;-3.168;2024-03-25T00:49:43;99463.90;;;6.82;54.04
73566;BME280;61846;52.970;-3.168;2024-03-25T00:52:09;99457.68;;;8.39;50.23
73566;BME280;61846;52.970;-3.168;2024-03-25T00:54:34;99460.95;;;7.73;51.57
73566;BME280;61846;52.970;-3.168;2024-03-25T00:57:00;99455.24;;;7.82;51.47
73566;BME280;61846;52.970;-3.168;2024-03-25T00:59:25;99458.34;;;6.41;54.91
73566;BME280;61846;52.970;-3.168;2024-03-25T01:01:52;99454.74;;;7.44;52.20
73566;BME280;61846;52.970;-3.168;2024-03-25T01:04:17;99449.06;;;8.38;50.57
73566;BME280;61846;52.970;-3.168;2024-03-25T01:06:42;99449.89;;;7.64;50.89
73566;BME280;61846;52.970;-3.168;2024-03-25T01:09:08;99446.30;;;8.87;48.59
73566;BME280;61846;52.970;-3.168;2024-03-25T01:11:34;99434.88;;;7.98;51.04
73566;BME280;61846;52.970;-3.168;2024-03-25T01:13:59;99439.24;;;7.94;51.33
73566;BME280;61846;52.970;-3.168;2024-03-25T01:16:25;99434.93;;;7.11;54.42
73566;BME280;61846;52.970;-3.168;2024-03-25T01:18:50;99433.03;;;7.57;53.54
73566;BME280;61846;52.970;-3.168;2024-03-25T01:21:16;99424.60;;;6.58;57.29
73566;BME280;61846;52.970;-3.168;2024-03-25T01:23:41;99419.37;;;6.32;59.20
73566;BME280;61846;52.970;-3.168;2024-03-25T01:26:07;99415.46;;;5.77;61.99
73566;BME280;61846;52.970;-3.168;2024-03-25T01:28:33;99409.59;;;6.27;61.51
73566;BME280;61846;52.970;-3.168;2024-03-25T01:30:58;99406.43;;;6.51;59.83
73566;BME280;61846;52.970;-3.168;2024-03-25T01:33:24;99403.64;;;7.01;59.49
73566;BME280;61846;52.970;-3.168;2024-03-25T01:35:49;99398.59;;;7.31;59.16
73566;BME280;61846;52.970;-3.168;2024-03-25T01:38:15;99391.27;;;6.41;60.34
73566;BME280;61846;52.970;-3.168;2024-03-25T01:40:41;99382.05;;;7.26;58.58
73566;BME280;61846;52.970;-3.168;2024-03-25T01:43:06;99380.90;;;6.42;60.01
73566;BME280;61846;52.970;-3.168;2024-03-25T01:45:33;99374.99;;;7.23;58.34
73566;BME280;61846;52.970;-3.168;2024-03-25T01:47:58;99370.94;;;6.34;59.79
73566;BME280;61846;52.970;-3.168;2024-03-25T01:50:24;99369.23;;;6.32;60.62
73566;BME280;61846;52.970;-3.168;2024-03-25T01:52:49;99370.17;;;6.15;61.97
73566;BME280;61846;52.970;-3.168;2024-03-25T01:55:17;99356.78;;;7.01;58.82
73566;BME280;61846;52.970;-3.168;2024-03-25T01:57:40;99351.56;;;8.01;57.11
73566;BME280;61846;52.970;-3.168;2024-03-25T02:00:08;99349.16;;;5.61;63.18
73566;BME280;61846;52.970;-3.168;2024-03-25T02:02:32;99342.39;;;7.08;59.29
73566;BME280;61846;52.970;-3.168;2024-03-25T02:04:57;99333.01;;;6.53;60.18
73566;BME280;61846;52.970;-3.168;2024-03-25T02:07:24;99328.72;;;6.30;61.35
73566;BME280;61846;52.970;-3.168;2024-03-25T02:09:49;99318.70;;;7.07;59.35
73566;BME280;61846;52.970;-3.168;2024-03-25T02:12:14;99314.08;;;7.05;59.40
73566;BME280;61846;52.970;-3.168;2024-03-25T02:14:40;99311.32;;;7.36;58.53
73566;BME280;61846;52.970;-3.168;2024-03-25T02:17:06;99301.69;;;7.68;57.20
73566;BME280;61846;52.970;-3.168;2024-03-25T02:19:31;99300.82;;;5.17;64.86
73566;BME280;61846;52.970;-3.168;2024-03-25T02:21:56;99295.41;;;5.80;64.16
73566;BME280;61846;52.970;-3.168;2024-03-25T02:24:23;99297.69;;;4.84;66.86
73566;BME280;61846;52.970;-3.168;2024-03-25T02:26:47;99280.67;;;7.23;60.98
73566;BME280;61846;52.970;-3.168;2024-03-25T02:29:13;99270.94;;;6.61;61.64
73566;BME280;61846;52.970;-3.168;2024-03-25T02:31:38;99268.65;;;6.50;61.26
73566;BME280;61846;52.970;-3.168;2024-03-25T02:34:04;99259.33;;;7.74;58.48
73566;BME280;61846;52.970;-3.168;2024-03-25T02:36:30;99250.92;;;7.88;58.84
73566;BME280;61846;52.970;-3.168;2024-03-25T02:38:55;99250.57;;;7.64;57.84
73566;BME280;61846;52.970;-3.168;2024-03-25T02:41:21;99250.28;;;7.02;60.20
73566;BME280;61846;52.970;-3.168;2024-03-25T02:43:46;99239.09;;;8.06;58.19
73566;BME280;61846;52.970;-3.168;2024-03-25T02:46:12;99240.73;;;7.57;59.15
73566;BME280;61846;52.970;-3.168;2024-03-25T02:48:38;99243.60;;;8.02;58.15
73566;BME280;61846;52.970;-3.168;2024-03-25T02:51:03;99238.98;;;7.37;59.35
73566;BME280;61846;52.970;-3.168;2024-03-25T02:53:29;99239.44;;;8.79;55.78
73566;BME280;61846;52.970;-3.168;2024-03-25T02:55:54;99231.23;;;8.54;55.55
73566;BME280;61846;52.970;-3.168;2024-03-25T02:58:20;99232.27;;;6.62;60.63
73566;BME280;61846;52.970;-3.168;2024-03-25T03:00:46;99225.23;;;8.44;57.17
73566;BME280;61846;52.970;-3.168;2024-03-25T03:03:11;99225.07;;;7.03;60.46
73566;BME280;61846;52.970;-3.168;2024-03-25T03:05:37;99221.29;;;7.68;58.17
73566;BME280;61846;52.970;-3.168;2024-03-25T03:08:03;99221.32;;;8.44;56.56
73566;BME280;61846;52.970;-3.168;2024-03-25T03:10:28;99213.77;;;8.15;57.46
73566;BME280;61846;52.970;-3.168;2024-03-25T03:12:54;99211.23;;;8.41;56.20
73566;BME280;61846;52.970;-3.168;2024-03-25T03:15:19;99212.96;;;6.86;60.73
73566;BME280;61846;52.970;-3.168;2024-03-25T03:17:45;99211.37;;;7.29;59.90
73566;BME280;61846;52.970;-3.168;2024-03-25T03:20:11;99201.52;;;7.74;58.83
73566;BME280;61846;52.970;-3.168;2024-03-25T03:22:36;99200.14;;;8.11;58.59
73566;BME280;61846;52.970;-3.168;2024-03-25T03:25:02;99193.50;;;8.63;57.10
73566;BME280;61846;52.970;-3.168;2024-03-25T03:27:27;99183.67;;;8.72;56.84
73566;BME280;61846;52.970;-3.168;2024-03-25T03:29:53;99176.63;;;8.45;55.92
73566;BME280;61846;52.970;-3.168;2024-03-25T03:32:19;99173.93;;;7.77;58.22
73566;BME280;61846;52.970;-3.168;2024-03-25T03:34:44;99169.89;;;7.57;59.33
73566;BME280;61846;52.970;-3.168;2024-03-25T03:37:10;99164.44;;;6.36;62.82
73566;BME280;61846;52.970;-3.168;2024-03-25T03:39:36;99157.55;;;7.62;59.29
73566;BME280;61846;52.970;-3.168;2024-03-25T03:42:01;99153.10;;;7.71;59.30
73566;BME280;61846;52.970;-3.168;2024-03-25T03:44:27;99152.88;;;6.97;60.21
73566;BME280;61846;52.970;-3.168;2024-03-25T03:46:53;99146.47;;;7.21;60.62
73566;BME280;61846;52.970;-3.168;2024-03-25T03:49:18;99146.36;;;6.34;63.40
73566;BME280;61846;52.970;-3.168;2024-03-25T03:51:44;99142.97;;;6.79;62.91
73566;BME280;61846;52.970;-3.168;2024-03-25T03:54:10;99136.98;;;7.07;61.20
73566;BME280;61846;52.970;-3.168;2024-03-25T03:56:35;99136.19;;;7.15;60.78
73566;BME280;61846;52.970;-3.168;2024-03-25T03:59:00;99133.07;;;6.88;61.34
73566;BME280;61846;52.970;-3.168;2024-03-25T04:01:26;99131.71;;;7.03;60.95
73566;BME280;61846;52.970;-3.168;2024-03-25T04:03:52;99129.56;;;6.27;63.94
73566;BME280;61846;52.970;-3.168;2024-03-25T04:06:17;99131.11;;;6.20;63.97
73566;BME280;61846;52.970;-3.168;2024-03-25T04:08:43;99124.58;;;7.33;61.45
73566;BME280;61846;52.970;-3.168;2024-03-25T04:11:08;99122.55;;;6.93;62.25
73566;BME280;61846;52.970;-3.168;2024-03-25T04:13:34;99116.14;;;7.55;60.31
73566;BME280;61846;52.970;-3.168;2024-03-25T04:16:02;99112.75;;;6.34;63.28
73566;BME280;61846;52.970;-3.168;2024-03-25T04:18:25;99106.46;;;7.92;59.57
73566;BME280;61846;52.970;-3.168;2024-03-25T04:20:51;99105.13;;;7.71;59.79
73566;BME280;61846;52.970;-3.168;2024-03-25T04:23:17;99101.78;;;7.11;61.38
73566;BME280;61846;52.970;-3.168;2024-03-25T04:25:42;99098.61;;;7.44;61.04
73566;BME280;61846;52.970;-3.168;2024-03-25T04:28:08;99094.53;;;7.56;61.17
73566;BME280;61846;52.970;-3.168;2024-03-25T04:30:34;99091.50;;;7.44;60.54
73566;BME280;61846;52.970;-3.168;2024-03-25T04:32:59;99076.79;;;8.31;57.29
73566;BME280;61846;52.970;-3.168;2024-03-25T04:35:25;99077.64;;;8.52;58.21
73566;BME280;61846;52.970;-3.168;2024-03-25T04:37:51;99083.64;;;6.23;62.89
73566;BME280;61846;52.970;-3.168;2024-03-25T04:40:16;99078.49;;;6.43;63.00
73566;BME280;61846;52.970;-3.168;2024-03-25T04:42:42;99078.03;;;6.77;63.64
73566;BME280;61846;52.970;-3.168;2024-03-25T04:45:08;99071.64;;;7.92;59.92
73566;BME280;61846;52.970;-3.168;2024-03-25T04:47:33;99075.73;;;7.22;61.59
73566;BME280;61846;52.970;-3.168;2024-03-25T04:49:59;99070.75;;;7.65;60.28
73566;BME280;61846;52.970;-3.168;2024-03-25T04:52:25;99069.90;;;7.81;59.60
73566;BME280;61846;52.970;-3.168;2024-03-25T04:54:51;99071.46;;;6.02;64.15
73566;BME280;61846;52.970;-3.168;2024-03-25T04:57:16;99065.37;;;8.20;59.38
73566;BME280;61846;52.970;-3.168;2024-03-25T04:59:42;99060.17;;;8.50;58.24
73566;BME280;61846;52.970;-3.168;2024-03-25T05:02:07;99054.76;;;8.52;57.13
73566;BME280;61846;52.970;-3.168;2024-03-25T05:04:33;99054.53;;;7.80;59.85
73566;BME280;61846;52.970;-3.168;2024-03-25T05:06:59;99051.58;;;7.89;59.48
73566;BME280;61846;52.970;-3.168;2024-03-25T05:09:25;99043.02;;;8.66;57.51
73566;BME280;61846;52.970;-3.168;2024-03-25T05:11:50;99040.85;;;9.10;56.98
73566;BME280;61846;52.970;-3.168;2024-03-25T05:14:16;99041.86;;;8.68;57.94
73566;BME280;61846;52.970;-3.168;2024-03-25T05:16:41;99033.37;;;8.84;56.76
73566;BME280;61846;52.970;-3.168;2024-03-25T05:19:07;99027.33;;;8.18;59.10
73566;BME280;61846;52.970;-3.168;2024-03-25T05:21:33;99025.28;;;7.87;59.86
73566;BME280;61846;52.970;-3.168;2024-03-25T05:23:58;99017.16;;;8.79;57.21
73566;BME280;61846;52.970;-3.168;2024-03-25T05:26:24;99013.13;;;8.52;59.08
73566;BME280;61846;52.970;-3.168;2024-03-25T05:28:53;99012.82;;;8.53;58.01
73566;BME280;61846;52.970;-3.168;2024-03-25T05:31:15;99006.68;;;8.66;57.91
73566;BME280;61846;52.970;-3.168;2024-03-25T05:33:40;99003.12;;;8.80;57.11
73566;BME280;61846;52.970;-3.168;2024-03-25T05:36:06;99000.90;;;8.28;58.69
73566;BME280;61846;52.970;-3.168;2024-03-25T05:38:31;98997.04;;;8.14;59.74
73566;BME280;61846;52.970;-3.168;2024-03-25T05:40:57;98997.17;;;8.29;58.98
73566;BME280;61846;52.970;-3.168;2024-03-25T05:43:23;98993.36;;;6.80;63.85
73566;BME280;61846;52.970;-3.168;2024-03-25T05:45:52;98993.38;;;7.17;64.62
73566;BME280;61846;52.970;-3.168;2024-03-25T05:48:14;98993.10;;;5.53;68.89
73566;BME280;61846;52.970;-3.168;2024-03-25T05:50:39;98984.84;;;7.42;64.33
73566;BME280;61846;52.970;-3.168;2024-03-25T05:53:05;98985.33;;;6.63;66.48
73566;BME280;61846;52.970;-3.168;2024-03-25T05:55:31;98990.07;;;5.71;69.86
73566;BME280;61846;52.970;-3.168;2024-03-25T05:57:57;98983.03;;;6.75;66.50
73566;BME280;61846;52.970;-3.168;2024-03-25T06:00:22;98983.17;;;6.00;68.85
73566;BME280;61846;52.970;-3.168;2024-03-25T06:02:48;98978.63;;;6.63;66.76
73566;BME280;61846;52.970;-3.168;2024-03-25T06:05:14;98972.10;;;7.03;66.59
73566;BME280;61846;52.970;-3.168;2024-03-25T06:07:39;98972.90;;;6.52;66.92
73566;BME280;61846;52.970;-3.168;2024-03-25T06:10:06;98971.74;;;6.87;66.88
73566;BME280;61846;52.970;-3.168;2024-03-25T06:12:31;98969.18;;;6.74;66.76
73566;BME280;61846;52.970;-3.168;2024-03-25T06:14:56;98967.84;;;6.32;68.72
73566;BME280;61846;52.970;-3.168;2024-03-25T06:17:22;98965.80;;;5.59;70.82
73566;BME280;61846;52.970;-3.168;2024-03-25T06:19:48;98963.60;;;5.90;71.67
73566;BME280;61846;52.970;-3.168;2024-03-25T06:22:13;98958.22;;;7.19;66.91
73566;BME280;61846;52.970;-3.168;2024-03-25T06:24:39;98960.43;;;5.17;72.77
73566;BME280;61846;52.970;-3.168;2024-03-25T06:27:05;98961.27;;;6.31;69.69
73566;BME280;61846;52.970;-3.168;2024-03-25T06:29:30;98957.57;;;6.35;70.15
73566;BME280;61846;52.970;-3.168;2024-03-25T06:31:56;98952.89;;;5.65;71.00
73566;BME280;61846;52.970;-3.168;2024-03-25T06:34:21;98947.62;;;6.20;70.05
73566;BME280;61846;52.970;-3.168;2024-03-25T06:36:47;98943.63;;;6.76;68.77
73566;BME280;61846;52.970;-3.168;2024-03-25T06:39:13;98941.48;;;6.51;69.29
73566;BME280;61846;52.970;-3.168;2024-03-25T06:41:38;98940.19;;;5.18;72.66
73566;BME280;61846;52.970;-3.168;2024-03-25T06:44:04;98941.60;;;5.61;72.27
73566;BME280;61846;52.970;-3.168;2024-03-25T06:46:30;98938.98;;;5.85;73.11
73566;BME280;61846;52.970;-3.168;2024-03-25T06:48:56;98932.15;;;6.50;71.38
73566;BME280;61846;52.970;-3.168;2024-03-25T06:51:21;98933.49;;;6.32;70.82
73566;BME280;61846;52.970;-3.168;2024-03-25T06:53:47;98932.44;;;5.56;73.50
73566;BME280;61846;52.970;-3.168;2024-03-25T06:56:12;98927.59;;;4.86;74.92
73566;BME280;61846;52.970;-3.168;2024-03-25T06:58:38;98927.37;;;5.85;73.47
73566;BME280;61846;52.970;-3.168;2024-03-25T07:01:06;98924.20;;;4.99;76.94
73566;BME280;61846;52.970;-3.168;2024-03-25T07:03:29;98925.03;;;6.07;74.64
73566;BME280;61846;52.970;-3.168;2024-03-25T07:05:55;98924.78;;;5.87;73.34
73566;BME280;61846;52.970;-3.168;2024-03-25T07:08:21;98922.32;;;5.17;74.71
73566;BME280;61846;52.970;-3.168;2024-03-25T07:10:46;98923.30;;;5.88;75.79
73566;BME280;61846;52.970;-3.168;2024-03-25T07:13:12;98914.73;;;6.33;72.32
73566;BME280;61846;52.970;-3.168;2024-03-25T07:15:38;98912.18;;;4.97;78.47
73566;BME280;61846;52.970;-3.168;2024-03-25T07:18:04;98912.57;;;5.93;76.47
73566;BME280;61846;52.970;-3.168;2024-03-25T07:20:29;98904.40;;;6.18;74.21
73566;BME280;61846;52.970;-3.168;2024-03-25T07:22:54;98906.94;;;5.23;75.44
73566;BME280;61846;52.970;-3.168;2024-03-25T07:25:20;98906.24;;;5.98;74.92
73566;BME280;61846;52.970;-3.168;2024-03-25T07:27:45;98896.72;;;6.92;70.83
73566;BME280;61846;52.970;-3.168;2024-03-25T07:30:11;98906.66;;;6.09;73.07
73566;BME280;61846;52.970;-3.168;2024-03-25T07:32:37;98901.18;;;5.71;75.69
73566;BME280;61846;52.970;-3.168;2024-03-25T07:35:03;98902.54;;;4.42;79.06
73566;BME280;61846;52.970;-3.168;2024-03-25T07:37:28;98900.61;;;5.67;76.15
73566;BME280;61846;52.970;-3.168;2024-03-25T07:39:55;98898.60;;;5.98;73.50
73566;BME280;61846;52.970;-3.168;2024-03-25T07:42:19;98902.45;;;5.85;75.09
73566;BME280;61846;52.970;-3.168;2024-03-25T07:44:45;98903.66;;;6.44;72.49
73566;BME280;61846;52.970;-3.168;2024-03-25T07:47:11;98900.56;;;6.70;73.16
73566;BME280;61846;52.970;-3.168;2024-03-25T07:49:36;98896.81;;;6.69;72.20
73566;BME280;61846;52.970;-3.168;2024-03-25T07:52:02;98899.02;;;5.78;75.20
73566;BME280;61846;52.970;-3.168;2024-03-25T07:54:28;98890.17;;;6.37;73.36
73566;BME280;61846;52.970;-3.168;2024-03-25T07:56:53;98888.04;;;7.09;70.78
73566;BME280;61846;52.970;-3.168;2024-03-25T07:59:19;98884.82;;;6.96;71.85
73566;BME280;61846;52.970;-3.168;2024-03-25T08:01:44;98884.97;;;6.54;71.98
73566;BME280;61846;52.970;-3.168;2024-03-25T08:04:10;98875.97;;;7.22;70.03
73566;BME280;61846;52.970;-3.168;2024-03-25T08:06:35;98883.65;;;6.03;73.24
73566;BME280;61846;52.970;-3.168;2024-03-25T08:09:01;98882.46;;;6.74;72.85
73566;BME280;61846;52.970;-3.168;2024-03-25T08:11:27;98883.22;;;6.48;74.85
73566;BME280;61846;52.970;-3.168;2024-03-25T08:13:53;98882.75;;;6.37;73.49
73566;BME280;61846;52.970;-3.168;2024-03-25T08:16:18;98889.13;;;5.45;77.19
73566;BME280;61846;52.970;-3.168;2024-03-25T08:18:43;98883.49;;;6.72;72.83
73566;BME280;61846;52.970;-3.168;2024-03-25T08:21:09;98877.37;;;8.18;68.65
73566;BME280;61846;52.970;-3.168;2024-03-25T08:23:35;98879.51;;;6.91;71.40
73566;BME280;61846;52.970;-3.168;2024-03-25T08:26:00;98881.22;;;6.25;73.53
73566;BME280;61846;52.970;-3.168;2024-03-25T08:28:26;98872.43;;;7.67;69.61
73566;BME280;61846;52.970;-3.168;2024-03-25T08:30:52;98869.72;;;7.67;68.60
73566;BME280;61846;52.970;-3.168;2024-03-25T08:33:17;98873.81;;;6.78;71.51
73566;BME280;61846;52.970;-3.168;2024-03-25T08:35:43;98869.57;;;7.97;69.01
73566;BME280;61846;52.970;-3.168;2024-03-25T08:38:09;98871.79;;;7.83;68.91
73566;BME280;61846;52.970;-3.168;2024-03-25T08:40:34;98872.69;;;7.64;70.17
73566;BME280;61846;52.970;-3.168;2024-03-25T08:42:59;98860.69;;;8.61;66.99
73566;BME280;61846;52.970;-3.168;2024-03-25T08:45:25;98859.35;;;6.32;72.35
73566;BME280;61846;52.970;-3.168;2024-03-25T08:47:51;98854.44;;;6.76;71.22
73566;BME280;61846;52.970;-3.168;2024-03-25T08:50:16;98854.36;;;6.77;72.35
73566;BME280;61846;52.970;-3.168;2024-03-25T08:52:41;98847.37;;;7.56;70.59
73566;BME280;61846;52.970;-3.168;2024-03-25T08:55:07;98844.31;;;7.41;69.80
73566;BME280;61846;52.970;-3.168;2024-03-25T08:57:32;98840.24;;;8.84;66.72
73566;BME280;61846;52.970;-3.168;2024-03-25T08:59:58;98837.82;;;7.32;69.69
73566;BME280;61846;52.970;-3.168;2024-03-25T09:02:23;98822.98;;;7.40;70.75
73566;BME280;61846;52.970;-3.168;2024-03-25T09:04:49;98822.50;;;7.61;71.19
73566;BME280;61846;52.970;-3.168;2024-03-25T09:07:15;98815.80;;;7.77;69.79
73566;BME280;61846;52.970;-3.168;2024-03-25T09:09:40;98820.10;;;7.68;70.75
73566;BME280;61846;52.970;-3.168;2024-03-25T09:12:06;98818.34;;;6.44;74.44
73566;BME280;61846;52.970;-3.168;2024-03-25T09:14:31;98821.16;;;6.84;74.54
73566;BME280;61846;52.970;-3.168;2024-03-25T09:16:56;98817.97;;;7.56;71.68
73566;BME280;61846;52.970;-3.168;2024-03-25T09:19:22;98818.96;;;7.47;71.48
73566;BME280;61846;52.970;-3.168;2024-03-25T09:21:48;98817.27;;;8.00;70.75
73566;BME280;61846;52.970;-3.168;2024-03-25T09:24:13;98822.30;;;7.29;73.96
73566;BME280;61846;52.970;-3.168;2024-03-25T09:26:39;98816.58;;;6.97;73.11
73566;BME280;61846;52.970;-3.168;2024-03-25T09:29:05;98826.39;;;7.03;73.89
73566;BME280;61846;52.970;-3.168;2024-03-25T09:31:31;98814.90;;;7.96;71.10
73566;BME280;61846;52.970;-3.168;2024-03-25T09:33:56;98806.36;;;6.07;75.44
73566;BME280;61846;52.970;-3.168;2024-03-25T09:36:22;98802.92;;;6.34;76.91
73566;BME280;61846;52.970;-3.168;2024-03-25T09:38:47;98799.99;;;7.76;73.27
73566;BME280;61846;52.970;-3.168;2024-03-25T09:41:13;98801.40;;;7.01;74.57
73566;BME280;61846;52.970;-3.168;2024-03-25T09:43:43;98804.88;;;6.61;76.51
73566;BME280;61846;52.970;-3.168;2024-03-25T09:46:04;98800.95;;;6.99;75.89
73566;BME280;61846;52.970;-3.168;2024-03-25T09:48:30;98796.32;;;7.54;72.93
73566;BME280;61846;52.970;-3.168;2024-03-25T09:50:56;98797.53;;;6.61;76.93
73566;BME280;61846;52.970;-3.168;2024-03-25T09:53:21;98780.99;;;7.29;76.20
73566;BME280;61846;52.970;-3.168;2024-03-25T09:55:46;98782.24;;;7.19;75.37
73566;BME280;61846;52.970;-3.168;2024-03-25T09:58:13;98776.40;;;6.89;75.52
73566;BME280;61846;52.970;-3.168;2024-03-25T10:00:38;98773.50;;;7.58;73.54
73566;BME280;61846;52.970;-3.168;2024-03-25T10:03:04;98764.21;;;7.30;74.35
73566;BME280;61846;52.970;-3.168;2024-03-25T10:05:29;98763.16;;;6.97;76.11
73566;BME280;61846;52.970;-3.168;2024-03-25T10:07:55;98771.24;;;6.89;74.59
73566;BME280;61846;52.970;-3.168;2024-03-25T10:10:20;98762.83;;;6.64;77.80
73566;BME280;61846;52.970;-3.168;2024-03-25T10:12:46;98758.98;;;7.35;76.45
73566;BME280;61846;52.970;-3.168;2024-03-25T10:15:15;98762.57;;;7.60;75.69
73566;BME280;61846;52.970;-3.168;2024-03-25T10:17:37;98770.36;;;7.58;74.61
73566;BME280;61846;52.970;-3.168;2024-03-25T10:20:03;98772.12;;;6.47;77.27
73566;BME280;61846;52.970;-3.168;2024-03-25T10:22:28;98771.03;;;7.61;74.77
73566;BME280;61846;52.970;-3.168;2024-03-25T10:24:54;98780.49;;;7.76;70.47
73566;BME280;61846;52.970;-3.168;2024-03-25T10:27:20;98792.15;;;7.50;72.61
73566;BME280;61846;52.970;-3.168;2024-03-25T10:29:45;98787.30;;;8.63;69.51
73566;BME280;61846;52.970;-3.168;2024-03-25T10:32:10;98785.75;;;7.02;72.23
73566;BME280;61846;52.970;-3.168;2024-03-25T10:34:36;98794.52;;;7.81;72.03
73566;BME280;61846;52.970;-3.168;2024-03-25T10:37:04;98788.06;;;6.74;74.12
73566;BME280;61846;52.970;-3.168;2024-03-25T10:39:31;98781.34;;;7.12;73.84
73566;BME280;61846;52.970;-3.168;2024-03-25T10:41:56;98786.33;;;7.38;74.35
73566;BME280;61846;52.970;-3.168;2024-03-25T10:44:19;98793.27;;;6.80;74.39
73566;BME280;61846;52.970;-3.168;2024-03-25T10:46:44;98773.95;;;7.41;71.61
73566;BME280;61846;52.970;-3.168;2024-03-25T10:49:16;98752.77;;;7.90;70.77
73566;BME280;61846;52.970;-3.168;2024-03-25T10:51:36;98768.49;;;7.88;70.58
73566;BME280;61846;52.970;-3.168;2024-03-25T10:54:02;98776.17;;;7.35;71.92
73566;BME280;61846;52.970;-3.168;2024-03-25T10:56:26;98764.44;;;7.64;70.62
73566;BME280;61846;52.970;-3.168;2024-03-25T10:58:53;98764.83;;;7.48;71.55
73566;BME280;61846;52.970;-3.168;2024-03-25T11:01:18;98768.69;;;6.90;72.20
73566;BME280;61846;52.970;-3.168;2024-03-25T11:03:45;98763.78;;;7.39;72.61
73566;BME280;61846;52.970;-3.168;2024-03-25T11:06:09;98766.82;;;7.06;73.09
73566;BME280;61846;52.970;-3.168;2024-03-25T11:08:34;98760.81;;;7.15;72.77
73566;BME280;61846;52.970;-3.168;2024-03-25T11:11:00;98748.44;;;8.03;68.84
73566;BME280;61846;52.970;-3.168;2024-03-25T11:13:27;98748.21;;;8.49;67.01
73566;BME280;61846;52.970;-3.168;2024-03-25T11:15:52;98751.14;;;9.06;67.15
73566;BME280;61846;52.970;-3.168;2024-03-25T11:18:21;98753.87;;;8.06;68.97
73566;BME280;61846;52.970;-3.168;2024-03-25T11:20:43;98743.70;;;8.55;67.71
73566;BME280;61846;52.970;-3.168;2024-03-25T11:23:09;98742.07;;;8.91;66.85
73566;BME280;61846;52.970;-3.168;2024-03-25T11:25:34;98752.59;;;6.86;71.55
73566;BME280;61846;52.970;-3.168;2024-03-25T11:27:59;98752.71;;;7.54;69.82
73566;BME280;61846;52.970;-3.168;2024-03-25T11:30:25;98751.05;;;8.45;66.78
73566;BME280;61846;52.970;-3.168;2024-03-25T11:32:52;98749.48;;;9.80;62.02
73566;BME280;61846;52.970;-3.168;2024-03-25T11:35:16;98743.81;;;9.56;63.76
73566;BME280;61846;52.970;-3.168;2024-03-25T11:37:42;98739.45;;;9.36;64.18
73566;BME280;61846;52.970;-3.168;2024-03-25T11:40:08;98742.73;;;7.64;68.62
73566;BME280;61846;52.970;-3.168;2024-03-25T11:42:33;98733.55;;;8.63;65.62
73566;BME280;61846;52.970;-3.168;2024-03-25T11:45:00;98732.21;;;7.16;69.68
73566;BME280;61846;52.970;-3.168;2024-03-25T11:47:24;98720.51;;;7.66;68.55
73566;BME280;61846;52.970;-3.168;2024-03-25T11:49:50;98721.89;;;8.00;67.38
73566;BME280;61846;52.970;-3.168;2024-03-25T11:52:15;98727.96;;;7.12;68.90
73566;BME280;61846;52.970;-3.168;2024-03-25T11:54:41;98725.67;;;7.69;70.13
73566;BME280;61846;52.970;-3.168;2024-03-25T11:57:07;98732.05;;;7.10;71.83
73566;BME280;61846;52.970;-3.168;2024-03-25T11:59:32;98718.63;;;6.99;72.82
73566;BME280;61846;52.970;-3.168;2024-03-25T12:01:58;98717.32;;;7.00;72.77
73566;BME280;61846;52.970;-3.168;2024-03-25T12:04:23;98705.15;;;8.92;67.89
73566;BME280;61846;52.970;-3.168;2024-03-25T12:06:49;98719.83;;;6.83;75.80
73566;BME280;61846;52.970;-3.168;2024-03-25T12:09:15;98715.99;;;6.71;76.10
73566;BME280;61846;52.970;-3.168;2024-03-25T12:11:40;98708.77;;;6.89;77.42
73566;BME280;61846;52.970;-3.168;2024-03-25T12:14:06;98713.94;;;6.75;77.97
73566;BME280;61846;52.970;-3.168;2024-03-25T12:16:31;98715.21;;;7.09;75.30
73566;BME280;61846;52.970;-3.168;2024-03-25T12:18:57;98704.72;;;7.45;73.03
73566;BME280;61846;52.970;-3.168;2024-03-25T12:21:23;98707.68;;;7.55;74.24
73566;BME280;61846;52.970;-3.168;2024-03-25T12:23:48;98697.84;;;7.88;72.13
73566;BME280;61846;52.970;-3.168;2024-03-25T12:26:14;98699.13;;;8.39;71.18
73566;BME280;61846;52.970;-3.168;2024-03-25T12:28:40;98704.22;;;8.52;70.93
73566;BME280;61846;52.970;-3.168;2024-03-25T12:31:08;98692.66;;;7.89;70.52
73566;BME280;61846;52.970;-3.168;2024-03-25T12:33:40;98696.25;;;7.82;73.07
73566;BME280;61846;52.970;-3.168;2024-03-25T12:35:56;98691.28;;;8.23;69.64
73566;BME280;61846;52.970;-3.168;2024-03-25T12:38:23;98687.34;;;9.40;66.56
73566;BME280;61846;52.970;-3.168;2024-03-25T12:40:47;98690.02;;;8.21;68.09
73566;BME280;61846;52.970;-3.168;2024-03-25T12:43:14;98681.38;;;9.76;65.81
73566;BME280;61846;52.970;-3.168;2024-03-25T12:45:39;98686.79;;;8.73;68.43
73566;BME280;61846;52.970;-3.168;2024-03-25T12:48:05;98688.41;;;7.89;70.61
73566;BME280;61846;52.970;-3.168;2024-03-25T12:50:30;98685.67;;;8.34;70.37